Time;durP1;ratioP1;P1;durP2;ratioP2;P2;SDS_P1;SDS_P2;PMS_P1;PMS_P2;Temp;Humidity;BMP_temperature;BMP_pressure;BME280_temperature;BME280_humidity;BME280_pressure;Samples;Min_cycle;Max_cycle;Signal;HPM_P1;HPM_P2
2021/06/13 00:00:12;;;;;;;1.92;1.80;;;;;;;;;;5093633;28;20224;-85
2021/06/13 00:02:40;;;;;;;2.63;1.60;;;;;;;;;;5093559;28;20288;-85
2021/06/13 00:05:09;;;;;;;2.10;1.90;;;;;;;;;;5092994;28;20559;-86
2021/06/13 00:07:37;;;;;;;2.47;2.10;;;;;;;;;;5093613;28;20691;-85
2021/06/13 00:10:06;;;;;;;2.40;1.75;;;;;;;;;;5093982;28;20294;-84
2021/06/13 00:12:35;;;;;;;3.85;1.83;;;;;;;;;;5093667;28;20200;-84
2021/06/13 00:15:02;;;;;;;2.33;1.98;;;;;;;;;;5093359;28;20547;-85
2021/06/13 00:17:29;;;;;;;1.83;1.58;;;;;;;;;;5093492;28;20211;-84
2021/06/13 00:19:55;;;;;;;1.92;1.70;;;;;;;;;;5093840;28;20228;-85
2021/06/13 00:22:22;;;;;;;2.05;1.85;;;;;;;;;;5093499;28;20701;-85
2021/06/13 00:24:49;;;;;;;4.57;2.35;;;;;;;;;;5092253;28;20208;-85
2021/06/13 00:27:16;;;;;;;3.30;1.70;;;;;;;;;;5093583;28;20245;-85
2021/06/13 00:29:44;;;;;;;2.17;1.50;;;;;;;;;;5093495;28;20224;-85
2021/06/13 00:32:11;;;;;;;4.10;2.35;;;;;;;;;;5093619;28;20208;-85
2021/06/13 00:34:38;;;;;;;2.35;1.45;;;;;;;;;;5093725;28;20196;-85
2021/06/13 00:37:05;;;;;;;1.95;1.85;;;;;;;;;;5092874;28;20200;-85
2021/06/13 00:39:32;;;;;;;2.63;2.03;;;;;;;;;;5093397;28;20307;-85
2021/06/13 00:41:59;;;;;;;2.10;1.88;;;;;;;;;;5093535;28;20669;-85
2021/06/13 00:44:26;;;;;;;2.15;1.63;;;;;;;;;;5092839;28;20206;-85
2021/06/13 00:46:54;;;;;;;2.13;1.92;;;;;;;;;;5092930;28;20204;-85
2021/06/13 00:49:21;;;;;;;3.10;1.88;;;;;;;;;;5093235;28;20216;-85
2021/06/13 00:51:48;;;;;;;2.45;1.88;;;;;;;;;;5094061;28;20204;-85
2021/06/13 00:54:15;;;;;;;6.15;1.60;;;;;;;;;;5093626;28;20241;-85
2021/06/13 00:56:42;;;;;;;3.28;1.67;;;;;;;;;;5094050;28;20200;-86
2021/06/13 00:59:09;;;;;;;2.45;1.63;;;;;;;;;;5095092;28;20231;-86
2021/06/13 01:01:36;;;;;;;3.13;2.17;;;;;;;;;;5095453;28;20622;-86
2021/06/13 01:04:06;;;;;;;3.00;2.17;;;;;;;;;;5093360;28;20223;-85
2021/06/13 01:06:43;;;;;;;4.45;1.92;;;;;;;;;;5094401;28;20295;-85
2021/06/13 01:09:12;;;;;;;2.40;1.85;;;;;;;;;;5095504;28;20220;-86
2021/06/13 01:11:47;;;;;;;3.65;1.77;;;;;;;;;;5094816;28;20188;-85
2021/06/13 01:14:20;;;;;;;3.28;2.22;;;;;;;;;;5094965;28;20203;-85
2021/06/13 01:16:53;;;;;;;2.85;2.03;;;;;;;;;;5094789;28;20188;-85
2021/06/13 01:19:45;;;;;;;3.83;2.30;;;;;;;;;;5094707;28;20224;-85
2021/06/13 01:22:34;;;;;;;7.95;4.35;;;;;;;;;;5094830;28;20230;-85
2021/06/13 01:25:17;;;;;;;2.53;1.75;;;;;;;;;;5096590;28;20199;-86
2021/06/13 01:28:38;;;;;;;2.03;1.80;;;;;;;;;;5096085;28;20672;-85
2021/06/13 01:31:07;;;;;;;3.20;1.80;;;;;;;;;;5096441;28;20215;-85
2021/06/13 01:33:35;;;;;;;2.47;1.65;;;;;;;;;;5096574;28;20848;-85
2021/06/13 01:36:03;;;;;;;3.83;1.95;;;;;;;;;;5095404;28;20180;-85
2021/06/13 01:38:31;;;;;;;4.47;2.45;;;;;;;;;;5097269;28;20221;-86
2021/06/13 01:41:01;;;;;;;1.88;1.73;;;;;;;;;;5097429;28;20625;-85
2021/06/13 01:43:29;;;;;;;4.90;2.15;;;;;;;;;;5096263;28;20217;-86
2021/06/13 01:45:57;;;;;;;2.50;2.30;;;;;;;;;;5096447;28;20203;-85
2021/06/13 01:48:25;;;;;;;1.88;1.77;;;;;;;;;;5097167;28;20216;-85
2021/06/13 01:50:54;;;;;;;2.20;1.95;;;;;;;;;;5100445;28;20247;-86
2021/06/13 01:53:21;;;;;;;3.38;2.17;;;;;;;;;;5100981;28;20265;-85
2021/06/13 01:55:49;;;;;;;2.75;2.17;;;;;;;;;;5099671;28;20185;-86
2021/06/13 01:58:20;;;;;;;4.22;1.88;;;;;;;;;;5100975;28;20226;-84
2021/06/13 02:00:49;;;;;;;7.97;3.03;;;;;;;;;;5099066;28;20205;-85
2021/06/13 02:03:17;;;;;;;2.33;1.98;;;;;;;;;;5100840;28;20211;-84
2021/06/13 02:05:45;;;;;;;3.08;1.90;;;;;;;;;;5099852;28;20546;-86
2021/06/13 02:08:12;;;;;;;3.13;1.83;;;;;;;;;;5101669;28;20200;-84
2021/06/13 02:10:40;;;;;;;2.33;2.13;;;;;;;;;;5099763;28;20670;-85
2021/06/13 02:13:08;;;;;;;2.05;1.85;;;;;;;;;;5099029;28;20204;-85
2021/06/13 02:15:36;;;;;;;3.70;2.53;;;;;;;;;;5098267;28;20207;-86
2021/06/13 02:18:05;;;;;;;3.55;2.00;;;;;;;;;;5098850;28;20200;-85
2021/06/13 02:20:34;;;;;;;2.15;1.60;;;;;;;;;;5097287;28;20177;-85
2021/06/13 02:23:02;;;;;;;2.65;2.17;;;;;;;;;;5097639;28;20392;-86
2021/06/13 02:25:29;;;;;;;2.53;2.22;;;;;;;;;;5098643;28;20577;-86
2021/06/13 02:27:59;;;;;;;4.47;2.30;;;;;;;;;;5098620;28;20208;-85
2021/06/13 02:30:29;;;;;;;3.47;2.10;;;;;;;;;;5098227;28;20192;-85
2021/06/13 02:32:57;;;;;;;2.05;1.83;;;;;;;;;;5099579;28;20653;-85
2021/06/13 02:35:25;;;;;;;1.88;1.40;;;;;;;;;;5096792;28;20196;-85
2021/06/13 02:37:52;;;;;;;3.00;1.77;;;;;;;;;;5096515;28;20200;-86
2021/06/13 02:40:21;;;;;;;3.30;2.10;;;;;;;;;;5097573;28;20220;-86
2021/06/13 02:42:47;;;;;;;3.97;1.90;;;;;;;;;;5098690;28;20199;-86
2021/06/13 02:45:21;;;;;;;1.83;1.73;;;;;;;;;;5098597;28;20196;-86
2021/06/13 02:47:49;;;;;;;4.03;1.80;;;;;;;;;;5097842;28;20219;-85
2021/06/13 02:50:16;;;;;;;2.38;2.15;;;;;;;;;;5099019;28;20236;-85
2021/06/13 02:52:48;;;;;;;3.08;2.17;;;;;;;;;;5097277;28;20204;-87
2021/06/13 02:55:21;;;;;;;3.08;2.10;;;;;;;;;;5099591;28;20203;-87
2021/06/13 02:57:52;;;;;;;3.25;2.42;;;;;;;;;;5098933;28;20208;-88
2021/06/13 03:00:20;;;;;;;2.42;1.95;;;;;;;;;;5098944;28;20231;-85
2021/06/13 03:02:50;;;;;;;2.60;2.20;;;;;;;;;;5098018;28;20688;-87
2021/06/13 03:05:20;;;;;;;2.67;2.20;;;;;;;;;;5098804;28;20251;-85
2021/06/13 03:07:47;;;;;;;2.15;1.95;;;;;;;;;;5099282;28;20188;-85
2021/06/13 03:10:15;;;;;;;2.45;2.05;;;;;;;;;;5099792;28;20223;-85
2021/06/13 03:12:44;;;;;;;3.50;1.70;;;;;;;;;;5099007;28;20196;-85
2021/06/13 03:15:12;;;;;;;2.92;1.70;;;;;;;;;;5099543;28;20188;-85
2021/06/13 03:17:41;;;;;;;4.30;2.05;;;;;;;;;;5097637;28;20265;-85
2021/06/13 03:20:11;;;;;;;4.95;1.92;;;;;;;;;;5100403;28;20226;-87
2021/06/13 03:22:39;;;;;;;3.50;1.98;;;;;;;;;;5098679;28;20257;-87
2021/06/13 03:25:07;;;;;;;2.78;1.92;;;;;;;;;;5098735;28;20217;-86
2021/06/13 03:27:35;;;;;;;4.40;2.45;;;;;;;;;;5100432;28;20225;-85
2021/06/13 03:30:06;;;;;;;2.38;2.17;;;;;;;;;;5099779;28;20216;-85
2021/06/13 03:32:34;;;;;;;2.92;2.63;;;;;;;;;;5098430;28;20196;-87
2021/06/13 03:35:01;;;;;;;2.92;2.42;;;;;;;;;;5097545;28;20257;-87
2021/06/13 03:37:28;;;;;;;7.95;2.83;;;;;;;;;;5100288;28;20204;-85
2021/06/13 03:39:56;;;;;;;2.50;2.30;;;;;;;;;;5098995;28;20592;-87
2021/06/13 03:42:24;;;;;;;6.28;2.90;;;;;;;;;;5098455;28;20204;-87
2021/06/13 03:44:52;;;;;;;2.58;2.33;;;;;;;;;;5098798;28;20299;-87
2021/06/13 03:47:21;;;;;;;3.47;2.15;;;;;;;;;;5098616;28;20561;-88
2021/06/13 03:49:50;;;;;;;4.03;2.30;;;;;;;;;;5097198;28;20567;-85
2021/06/13 03:52:20;;;;;;;3.38;2.15;;;;;;;;;;5099897;28;20204;-86
2021/06/13 03:54:47;;;;;;;4.70;2.85;;;;;;;;;;5105331;28;20185;-86
2021/06/13 03:57:15;;;;;;;3.60;2.50;;;;;;;;;;5106260;28;20365;-85
2021/06/13 03:59:45;;;;;;;4.53;2.50;;;;;;;;;;5108899;28;20279;-86
2021/06/13 04:02:13;;;;;;;3.95;2.83;;;;;;;;;;5112171;28;20192;-85
2021/06/13 04:04:48;;;;;;;3.38;2.80;;;;;;;;;;5112005;28;20292;-85
2021/06/13 04:07:18;;;;;;;2.85;2.63;;;;;;;;;;5112732;28;20203;-85
2021/06/13 04:09:46;;;;;;;5.82;2.88;;;;;;;;;;5108558;28;20234;-85
2021/06/13 04:12:17;;;;;;;3.35;2.70;;;;;;;;;;5092841;28;20196;-86
2021/06/13 04:14:46;;;;;;;3.28;2.63;;;;;;;;;;5094085;28;20571;-86
2021/06/13 04:17:15;;;;;;;3.90;2.55;;;;;;;;;;5092527;28;20200;-86
2021/06/13 04:19:44;;;;;;;4.20;2.65;;;;;;;;;;5092563;28;20227;-86
2021/06/13 04:22:13;;;;;;;6.35;2.80;;;;;;;;;;5093845;28;20204;-86
2021/06/13 04:24:43;;;;;;;3.53;2.47;;;;;;;;;;5092674;28;20227;-85
2021/06/13 04:27:11;;;;;;;2.72;2.38;;;;;;;;;;5092523;28;20200;-85
2021/06/13 04:29:39;;;;;;;3.75;2.38;;;;;;;;;;5094201;28;20265;-85
2021/06/13 04:32:10;;;;;;;4.82;2.85;;;;;;;;;;5092315;28;20204;-85
2021/06/13 04:34:38;;;;;;;3.95;2.78;;;;;;;;;;5092428;28;20208;-85
2021/06/13 04:37:09;;;;;;;4.85;2.50;;;;;;;;;;5094114;28;20184;-86
2021/06/13 04:39:38;;;;;;;8.63;2.20;;;;;;;;;;5092961;28;20263;-86
2021/06/13 04:42:07;;;;;;;2.97;2.63;;;;;;;;;;5093935;28;20193;-85
2021/06/13 04:44:36;;;;;;;4.32;1.92;;;;;;;;;;5093123;28;20220;-85
2021/06/13 04:47:06;;;;;;;3.72;2.70;;;;;;;;;;5093709;28;20670;-86
2021/06/13 04:49:33;;;;;;;4.63;2.75;;;;;;;;;;5092659;28;20681;-85
2021/06/13 04:52:02;;;;;;;2.25;2.05;;;;;;;;;;5092499;28;20208;-85
2021/06/13 04:54:50;;;;;;;2.35;2.13;;;;;;;;;;5092656;28;20537;-84
2021/06/13 04:57:44;;;;;;;7.35;3.03;;;;;;;;;;5092276;28;20670;-84
2021/06/13 05:00:12;;;;;;;8.15;2.88;;;;;;;;;;5091732;28;20212;-85
2021/06/13 05:02:40;;;;;;;3.35;2.38;;;;;;;;;;5092636;28;20291;-84
2021/06/13 05:05:08;;;;;;;4.47;2.38;;;;;;;;;;5090980;28;20228;-85
2021/06/13 05:07:36;;;;;;;3.10;2.35;;;;;;;;;;5091474;28;20199;-85
2021/06/13 05:10:06;;;;;;;3.88;2.72;;;;;;;;;;5091667;28;20231;-85
2021/06/13 05:12:46;;;;;;;3.40;2.17;;;;;;;;;;5091336;28;20216;-84
2021/06/13 05:15:16;;;;;;;3.58;2.63;;;;;;;;;;5092378;28;20688;-85
2021/06/13 05:17:43;;;;;;;2.67;2.25;;;;;;;;;;5093573;28;20219;-84
2021/06/13 05:20:12;;;;;;;2.53;2.22;;;;;;;;;;5092864;28;20223;-85
2021/06/13 05:22:57;;;;;;;4.70;2.60;;;;;;;;;;5092697;28;20200;-85
2021/06/13 05:25:29;;;;;;;3.88;2.60;;;;;;;;;;5095781;28;20587;-85
2021/06/13 05:27:57;;;;;;;3.15;2.35;;;;;;;;;;5095129;28;20199;-85
2021/06/13 05:30:25;;;;;;;3.00;2.60;;;;;;;;;;5095742;28;20654;-85
2021/06/13 05:32:53;;;;;;;4.30;2.60;;;;;;;;;;5095745;28;20201;-85
2021/06/13 05:35:21;;;;;;;3.55;2.58;;;;;;;;;;5095711;28;20295;-86
2021/06/13 05:37:49;;;;;;;2.85;2.50;;;;;;;;;;5094945;28;20663;-85
2021/06/13 05:40:18;;;;;;;2.78;2.20;;;;;;;;;;5095668;28;20220;-85
2021/06/13 05:42:48;;;;;;;2.30;2.10;;;;;;;;;;5096268;28;20214;-85
2021/06/13 05:45:18;;;;;;;2.92;2.70;;;;;;;;;;5095767;28;20564;-85
2021/06/13 05:47:46;;;;;;;4.50;2.72;;;;;;;;;;5095133;28;20208;-85
2021/06/13 05:50:14;;;;;;;3.60;2.38;;;;;;;;;;5095920;28;20533;-85
2021/06/13 05:52:42;;;;;;;3.40;2.72;;;;;;;;;;5096095;28;20283;-85
2021/06/13 05:55:11;;;;;;;2.42;2.22;;;;;;;;;;5094834;28;20200;-86
2021/06/13 05:57:39;;;;;;;4.72;2.35;;;;;;;;;;5095744;28;20649;-85
2021/06/13 06:00:12;;;;;;;3.00;2.10;;;;;;;;;;5095644;28;20234;-86
2021/06/13 06:02:40;;;;;;;4.60;2.83;;;;;;;;;;5094647;28;20287;-85
2021/06/13 06:05:10;;;;;;;4.03;2.58;;;;;;;;;;5094461;28;20307;-85
2021/06/13 06:07:38;;;;;;;2.58;2.25;;;;;;;;;;5095412;28;20204;-86
2021/06/13 06:10:06;;;;;;;3.50;2.50;;;;;;;;;;5094869;28;20729;-85
2021/06/13 06:12:34;;;;;;;5.53;4.10;;;;;;;;;;5094871;28;20200;-86
2021/06/13 06:15:01;;;;;;;4.13;2.85;;;;;;;;;;5095709;28;20208;-86
2021/06/13 06:17:30;;;;;;;4.70;2.78;;;;;;;;;;5095148;28;20688;-84
2021/06/13 06:19:57;;;;;;;4.63;2.35;;;;;;;;;;5094795;28;20234;-85
2021/06/13 06:22:24;;;;;;;4.05;2.45;;;;;;;;;;5094328;28;20433;-86
2021/06/13 06:24:52;;;;;;;3.20;2.88;;;;;;;;;;5093745;28;20196;-85
2021/06/13 06:27:19;;;;;;;3.30;1.98;;;;;;;;;;5095719;28;20204;-84
2021/06/13 06:29:47;;;;;;;4.55;2.67;;;;;;;;;;5094998;28;20216;-83
2021/06/13 06:32:14;;;;;;;3.45;2.50;;;;;;;;;;5096982;28;20231;-85
2021/06/13 06:34:43;;;;;;;5.80;2.28;;;;;;;;;;5093868;28;20619;-86
2021/06/13 06:37:11;;;;;;;2.90;2.45;;;;;;;;;;5094073;28;20235;-85
2021/06/13 06:39:38;;;;;;;3.47;2.55;;;;;;;;;;5094406;28;20227;-85
2021/06/13 06:42:06;;;;;;;3.88;2.72;;;;;;;;;;5094470;28;20200;-84
2021/06/13 06:44:34;;;;;;;3.30;2.47;;;;;;;;;;5094372;28;20185;-85
2021/06/13 06:47:02;;;;;;;5.00;2.33;;;;;;;;;;5093420;28;20228;-85
2021/06/13 06:49:30;;;;;;;3.50;2.70;;;;;;;;;;5095236;28;20225;-84
2021/06/13 06:52:00;;;;;;;5.18;3.10;;;;;;;;;;5095455;28;20201;-84
2021/06/13 06:54:28;;;;;;;4.40;2.53;;;;;;;;;;5096081;28;20201;-84
2021/06/13 06:56:55;;;;;;;5.03;2.58;;;;;;;;;;5096049;28;20264;-85
2021/06/13 06:59:23;;;;;;;2.92;2.38;;;;;;;;;;5096294;28;20608;-83
2021/06/13 07:01:50;;;;;;;4.15;2.10;;;;;;;;;;5096954;28;20197;-84
2021/06/13 07:04:18;;;;;;;3.15;2.70;;;;;;;;;;5095834;28;20243;-84
2021/06/13 07:06:45;;;;;;;3.60;2.30;;;;;;;;;;5096366;28;20226;-83
2021/06/13 07:09:14;;;;;;;2.22;2.03;;;;;;;;;;5095978;28;20745;-85
2021/06/13 07:11:42;;;;;;;1.70;1.60;;;;;;;;;;5096699;28;20295;-84
2021/06/13 07:14:09;;;;;;;2.88;2.13;;;;;;;;;;5097479;28;20618;-83
2021/06/13 07:16:37;;;;;;;4.32;2.42;;;;;;;;;;5096208;28;20579;-83
2021/06/13 07:19:04;;;;;;;3.70;2.00;;;;;;;;;;5095902;28;20702;-83
2021/06/13 07:21:32;;;;;;;3.47;2.10;;;;;;;;;;5095869;28;20197;-84
2021/06/13 07:23:59;;;;;;;8.30;3.80;;;;;;;;;;5098507;28;20204;-84
2021/06/13 07:26:28;;;;;;;2.40;1.90;;;;;;;;;;5098824;28;20312;-85
2021/06/13 07:28:56;;;;;;;2.28;2.08;;;;;;;;;;5105700;28;20270;-84
2021/06/13 07:31:23;;;;;;;3.83;1.90;;;;;;;;;;5099301;28;20224;-84
2021/06/13 07:36:35;;;;;;;2.40;2.03;;;;;;;;;;5095282;28;20208;-84
2021/06/13 07:39:03;;;;;;;1.60;1.50;;;;;;;;;;5097138;28;20209;-83
2021/06/13 07:41:32;;;;;;;1.95;1.83;;;;;;;;;;5097382;28;20184;-84
2021/06/13 07:44:00;;;;;;;2.55;1.98;;;;;;;;;;5101323;28;20666;-82
2021/06/13 07:46:28;;;;;;;1.90;1.70;;;;;;;;;;5096246;28;20215;-84
2021/06/13 07:48:57;;;;;;;1.73;1.60;;;;;;;;;;5096352;28;20627;-83
2021/06/13 07:51:24;;;;;;;2.17;1.98;;;;;;;;;;5095964;28;20285;-84
2021/06/13 07:53:52;;;;;;;1.95;1.83;;;;;;;;;;5096565;28;20180;-84
2021/06/13 07:56:19;;;;;;;1.60;1.50;;;;;;;;;;5096592;28;20199;-84
2021/06/13 07:58:48;;;;;;;1.90;1.70;;;;;;;;;;5095847;28;20224;-85
2021/06/13 08:01:16;;;;;;;2.15;1.95;;;;;;;;;;5095285;28;20268;-84
2021/06/13 08:03:43;;;;;;;2.28;1.85;;;;;;;;;;5095441;28;20635;-85
2021/06/13 08:06:11;;;;;;;2.25;1.80;;;;;;;;;;5095054;28;20337;-85
2021/06/13 08:08:38;;;;;;;3.20;1.92;;;;;;;;;;5095928;28;20312;-84
2021/06/13 08:11:09;;;;;;;2.80;1.95;;;;;;;;;;5096095;28;20224;-84
2021/06/13 08:13:36;;;;;;;2.03;1.70;;;;;;;;;;5096066;28;20617;-84
2021/06/13 08:16:07;;;;;;;1.73;1.63;;;;;;;;;;5093315;28;20279;-84
2021/06/13 08:18:34;;;;;;;2.08;1.70;;;;;;;;;;5095211;28;20252;-84
2021/06/13 08:21:02;;;;;;;1.48;1.35;;;;;;;;;;5095281;28;20284;-84
2021/06/13 08:23:31;;;;;;;4.00;1.50;;;;;;;;;;5094980;28;20567;-83
2021/06/13 08:25:59;;;;;;;1.85;1.73;;;;;;;;;;5095699;28;20212;-83
2021/06/13 08:28:26;;;;;;;3.67;2.35;;;;;;;;;;5094491;28;20224;-84
2021/06/13 08:30:54;;;;;;;2.25;1.40;;;;;;;;;;5094750;28;20198;-85
2021/06/13 08:33:23;;;;;;;2.65;1.83;;;;;;;;;;5092820;28;20210;-84
2021/06/13 08:35:51;;;;;;;2.72;2.25;;;;;;;;;;5093929;28;20211;-83
2021/06/13 08:38:20;;;;;;;2.55;1.80;;;;;;;;;;5093894;28;20665;-84
2021/06/13 08:40:48;;;;;;;1.65;1.55;;;;;;;;;;5095000;28;20199;-84
2021/06/13 08:43:16;;;;;;;1.25;1.17;;;;;;;;;;5094247;28;20196;-84
2021/06/13 08:45:43;;;;;;;1.70;1.60;;;;;;;;;;5093757;28;20560;-84
2021/06/13 08:48:12;;;;;;;2.92;1.50;;;;;;;;;;5094277;28;20678;-84
2021/06/13 08:50:41;;;;;;;2.70;1.77;;;;;;;;;;5093324;28;20238;-85
2021/06/13 08:53:09;;;;;;;1.98;1.70;;;;;;;;;;5093645;28;20196;-85
2021/06/13 08:55:37;;;;;;;1.33;1.23;;;;;;;;;;5092639;28;20582;-84
2021/06/13 08:58:05;;;;;;;1.73;1.52;;;;;;;;;;5093199;28;20200;-85
2021/06/13 09:00:33;;;;;;;2.83;1.40;;;;;;;;;;5093236;28;20251;-85
2021/06/13 09:03:03;;;;;;;1.60;1.50;;;;;;;;;;5093287;28;20199;-85
2021/06/13 09:05:31;;;;;;;2.00;1.60;;;;;;;;;;5093702;28;20281;-83
2021/06/13 09:08:02;;;;;;;1.77;1.50;;;;;;;;;;5093680;28;20223;-84
2021/06/13 09:10:31;;;;;;;4.47;1.55;;;;;;;;;;5093582;28;20200;-83
2021/06/13 09:13:16;;;;;;;3.33;1.30;;;;;;;;;;5093655;28;20196;-83
2021/06/13 09:15:47;;;;;;;1.40;1.30;;;;;;;;;;5094304;28;20653;-83
2021/06/13 09:18:36;;;;;;;1.58;1.40;;;;;;;;;;5094477;28;20200;-83
2021/06/13 09:21:07;;;;;;;2.53;1.40;;;;;;;;;;5093698;28;20202;-83
2021/06/13 09:23:38;;;;;;;1.40;1.30;;;;;;;;;;5094561;28;20196;-83
2021/06/13 09:26:10;;;;;;;1.75;1.40;;;;;;;;;;5094170;28;20203;-84
2021/06/13 09:28:39;;;;;;;1.80;1.70;;;;;;;;;;5093634;28;20593;-84
2021/06/13 09:31:14;;;;;;;1.65;1.55;;;;;;;;;;5094187;28;20650;-83
2021/06/13 09:33:42;;;;;;;1.88;1.65;;;;;;;;;;5094040;28;20200;-83
2021/06/13 09:36:11;;;;;;;1.58;1.27;;;;;;;;;;5093859;28;20283;-82
2021/06/13 09:38:43;;;;;;;2.00;1.60;;;;;;;;;;5092787;28;20702;-83
2021/06/13 09:41:14;;;;;;;1.88;1.75;;;;;;;;;;5093561;28;20291;-85
2021/06/13 09:43:44;;;;;;;2.00;1.60;;;;;;;;;;5093020;28;20617;-84
2021/06/13 09:46:15;;;;;;;1.48;1.38;;;;;;;;;;5093241;28;20200;-83
2021/06/13 09:48:45;;;;;;;1.65;1.40;;;;;;;;;;5094283;28;20220;-84
2021/06/13 09:51:15;;;;;;;2.05;1.05;;;;;;;;;;5093756;28;20231;-83
2021/06/13 09:53:45;;;;;;;2.38;1.95;;;;;;;;;;5093447;28;20184;-82
2021/06/13 09:56:20;;;;;;;2.13;1.80;;;;;;;;;;5094668;28;20196;-83
2021/06/13 09:58:50;;;;;;;2.00;1.90;;;;;;;;;;5094812;28;20266;-83
2021/06/13 10:01:19;;;;;;;2.20;2.00;;;;;;;;;;5094057;28;20535;-83
2021/06/13 10:03:48;;;;;;;1.42;1.30;;;;;;;;;;5093430;28;20192;-84
2021/06/13 10:06:19;;;;;;;1.40;1.30;;;;;;;;;;5094225;28;20205;-83
2021/06/13 10:08:49;;;;;;;1.85;1.75;;;;;;;;;;5094158;28;20220;-86
2021/06/13 10:11:19;;;;;;;1.60;1.40;;;;;;;;;;5097012;28;20660;-84
2021/06/13 10:13:51;;;;;;;1.95;1.20;;;;;;;;;;5096694;28;20202;-85
2021/06/13 10:16:47;;;;;;;1.88;1.40;;;;;;;;;;5097405;28;20254;-83
2021/06/13 10:19:16;;;;;;;1.70;1.60;;;;;;;;;;5097655;28;20231;-83
2021/06/13 10:21:47;;;;;;;1.75;1.65;;;;;;;;;;5099201;28;20192;-84
2021/06/13 10:24:18;;;;;;;1.73;1.30;;;;;;;;;;5096950;28;20200;-85
2021/06/13 10:26:50;;;;;;;1.95;1.50;;;;;;;;;;5096409;28;20196;-83
2021/06/13 10:29:19;;;;;;;1.40;1.30;;;;;;;;;;5095505;28;20231;-84
2021/06/13 10:31:49;;;;;;;1.50;1.40;;;;;;;;;;5095477;28;20181;-84
2021/06/13 10:34:18;;;;;;;1.27;1.17;;;;;;;;;;5095405;28;20181;-85
2021/06/13 10:36:46;;;;;;;1.42;1.23;;;;;;;;;;5096064;28;20539;-84
2021/06/13 10:39:17;;;;;;;1.98;1.50;;;;;;;;;;5095840;28;20220;-83
2021/06/13 10:41:46;;;;;;;1.63;1.50;;;;;;;;;;5097225;28;20563;-85
2021/06/13 10:44:19;;;;;;;1.80;1.20;;;;;;;;;;5096262;28;20291;-85
2021/06/13 10:46:48;;;;;;;1.67;1.30;;;;;;;;;;5097157;28;20192;-85
2021/06/13 10:49:32;;;;;;;1.48;1.38;;;;;;;;;;5096234;28;20226;-83
2021/06/13 10:52:11;;;;;;;1.83;1.40;;;;;;;;;;5096346;28;20271;-84
2021/06/13 10:54:42;;;;;;;1.58;1.48;;;;;;;;;;5096875;28;20199;-83
2021/06/13 10:57:47;;;;;;;1.55;1.42;;;;;;;;;;5096515;28;20274;-83
2021/06/13 11:00:32;;;;;;;1.25;1.17;;;;;;;;;;5096387;28;20220;-83
2021/06/13 11:03:01;;;;;;;1.30;1.20;;;;;;;;;;5098490;28;20661;-83
2021/06/13 11:05:47;;;;;;;1.40;1.30;;;;;;;;;;5095940;28;20196;-83
2021/06/13 11:08:16;;;;;;;1.50;1.40;;;;;;;;;;5097860;28;20223;-83
2021/06/13 11:10:47;;;;;;;1.48;1.30;;;;;;;;;;5097599;28;20204;-84
2021/06/13 11:13:24;;;;;;;1.45;1.10;;;;;;;;;;5098213;28;20192;-86
2021/06/13 11:15:57;;;;;;;1.23;1.13;;;;;;;;;;5097972;28;20616;-85
2021/06/13 11:18:28;;;;;;;1.95;1.08;;;;;;;;;;5097722;28;20587;-83
2021/06/13 11:21:07;;;;;;;1.00;1.00;;;;;;;;;;5097332;28;20242;-85
2021/06/13 11:23:46;;;;;;;1.33;1.23;;;;;;;;;;5095773;28;20235;-82
2021/06/13 11:26:41;;;;;;;3.10;1.58;;;;;;;;;;5096765;28;20184;-83
2021/06/13 11:29:14;;;;;;;2.05;1.20;;;;;;;;;;5094597;28;20228;-83
2021/06/13 11:31:51;;;;;;;1.23;1.13;;;;;;;;;;5096668;28;20183;-83
2021/06/13 11:34:20;;;;;;;1.40;1.20;;;;;;;;;;5096691;28;20204;-84
2021/06/13 11:36:50;;;;;;;2.05;1.77;;;;;;;;;;5096326;28;20180;-84
2021/06/13 11:39:35;;;;;;;2.50;1.30;;;;;;;;;;5096456;28;20588;-83
2021/06/13 11:42:17;;;;;;;1.75;1.13;;;;;;;;;;5096444;28;20201;-84
2021/06/13 11:44:50;;;;;;;1.67;1.20;;;;;;;;;;5096252;28;20203;-83
2021/06/13 11:47:36;;;;;;;2.75;1.48;;;;;;;;;;5097056;28;20204;-83
2021/06/13 11:50:14;;;;;;;1.73;1.30;;;;;;;;;;5096234;28;20228;-84
2021/06/13 11:53:02;;;;;;;1.20;1.15;;;;;;;;;;5096412;28;20214;-83
2021/06/13 11:56:01;;;;;;;1.17;1.08;;;;;;;;;;5096162;28;20204;-85
2021/06/13 11:58:31;;;;;;;1.80;1.20;;;;;;;;;;5095375;28;20227;-86
2021/06/13 12:01:01;;;;;;;2.20;1.38;;;;;;;;;;5095711;28;20601;-85
2021/06/13 12:03:30;;;;;;;1.85;1.70;;;;;;;;;;5094657;28;20662;-85
2021/06/13 12:06:06;;;;;;;2.17;1.30;;;;;;;;;;5095829;28;20208;-85
2021/06/13 12:08:41;;;;;;;1.02;1.00;;;;;;;;;;5096197;28;20232;-85
2021/06/13 12:11:09;;;;;;;1.80;1.70;;;;;;;;;;5094827;28;20204;-85
2021/06/13 12:13:37;;;;;;;1.10;1.00;;;;;;;;;;5093977;28;20212;-85
2021/06/13 12:16:19;;;;;;;1.08;1.08;;;;;;;;;;5094778;28;20205;-84
2021/06/13 12:19:00;;;;;;;1.60;1.40;;;;;;;;;;5096195;28;20220;-87
2021/06/13 12:21:29;;;;;;;2.25;1.30;;;;;;;;;;5095424;28;20196;-85
2021/06/13 12:24:03;;;;;;;1.30;1.10;;;;;;;;;;5096099;28;20653;-85
2021/06/13 12:29:27;;;;;;;0.93;0.93;;;;;;;;;;5093929;28;20243;-83
2021/06/13 12:31:55;;;;;;;1.33;1.23;;;;;;;;;;5094778;28;20559;-83
2021/06/13 12:34:24;;;;;;;1.60;1.00;;;;;;;;;;5095034;28;20291;-84
2021/06/13 12:36:54;;;;;;;1.60;1.50;;;;;;;;;;5095075;28;20184;-84
2021/06/13 12:39:26;;;;;;;1.20;1.20;;;;;;;;;;5093980;28;20216;-84
2021/06/13 12:41:55;;;;;;;2.20;1.98;;;;;;;;;;5092780;28;20193;-84
2021/06/13 12:44:23;;;;;;;1.15;1.05;;;;;;;;;;5094696;28;20187;-84
2021/06/13 12:46:51;;;;;;;1.42;1.20;;;;;;;;;;5096718;28;20193;-84
2021/06/13 12:49:19;;;;;;;1.35;1.20;;;;;;;;;;5095065;28;20220;-86
2021/06/13 12:51:46;;;;;;;1.85;1.60;;;;;;;;;;5090289;28;20212;-86
2021/06/13 12:54:16;;;;;;;2.97;1.60;;;;;;;;;;5093064;28;20253;-86
2021/06/13 12:56:44;;;;;;;1.60;1.50;;;;;;;;;;5092708;28;20204;-85
2021/06/13 12:59:12;;;;;;;1.20;1.20;;;;;;;;;;5093307;28;20702;-86
2021/06/13 13:01:42;;;;;;;1.35;1.13;;;;;;;;;;5091836;28;20576;-86
2021/06/13 13:04:11;;;;;;;2.67;1.25;;;;;;;;;;5091512;28;20287;-86
2021/06/13 13:06:48;;;;;;;1.30;1.20;;;;;;;;;;5092543;28;20705;-86
2021/06/13 13:09:16;;;;;;;0.70;0.70;;;;;;;;;;5092417;28;20223;-86
2021/06/13 13:11:43;;;;;;;1.52;1.42;;;;;;;;;;5091772;28;20665;-85
2021/06/13 13:14:11;;;;;;;1.42;1.23;;;;;;;;;;5091303;28;20196;-85
2021/06/13 13:16:42;;;;;;;1.10;1.00;;;;;;;;;;5091528;28;20223;-86
2021/06/13 13:19:11;;;;;;;1.30;1.10;;;;;;;;;;5091173;28;20231;-85
2021/06/13 13:21:40;;;;;;;1.20;1.10;;;;;;;;;;5091513;28;20204;-86
2021/06/13 13:24:26;;;;;;;1.23;1.13;;;;;;;;;;5091487;28;20231;-86
2021/06/13 13:27:01;;;;;;;1.50;1.40;;;;;;;;;;5091068;28;20196;-85
2021/06/13 13:29:43;;;;;;;1.25;1.10;;;;;;;;;;5092294;28;20224;-85
2021/06/13 13:32:11;;;;;;;1.00;1.00;;;;;;;;;;5093113;28;20565;-85
2021/06/13 13:34:39;;;;;;;1.20;1.10;;;;;;;;;;5092577;28;20269;-85
2021/06/13 13:37:10;;;;;;;1.42;1.20;;;;;;;;;;5090711;28;20211;-86
2021/06/13 13:39:39;;;;;;;1.27;1.17;;;;;;;;;;5091582;28;20274;-86
2021/06/13 13:42:10;;;;;;;1.55;1.45;;;;;;;;;;5091432;28;20616;-85
2021/06/13 13:44:39;;;;;;;1.92;1.05;;;;;;;;;;5093825;28;20189;-86
2021/06/13 13:47:10;;;;;;;1.75;1.65;;;;;;;;;;5095772;28;20200;-86
2021/06/13 13:49:40;;;;;;;1.60;1.50;;;;;;;;;;5095391;28;20274;-86
2021/06/13 13:52:20;;;;;;;1.60;1.20;;;;;;;;;;5095161;28;20662;-86
2021/06/13 13:54:48;;;;;;;1.50;1.40;;;;;;;;;;5094592;28;20581;-86
2021/06/13 13:57:15;;;;;;;1.70;1.60;;;;;;;;;;5095886;28;20211;-86
2021/06/13 13:59:46;;;;;;;1.88;1.67;;;;;;;;;;5095910;28;20302;-86
2021/06/13 14:02:14;;;;;;;1.15;1.05;;;;;;;;;;5095418;28;20238;-87
2021/06/13 14:04:42;;;;;;;1.73;1.63;;;;;;;;;;5094301;28;20214;-86
2021/06/13 14:07:10;;;;;;;1.38;1.27;;;;;;;;;;5094780;28;20215;-86
2021/06/13 14:09:39;;;;;;;1.25;1.15;;;;;;;;;;5094527;28;20310;-87
2021/06/13 14:12:09;;;;;;;0.95;0.88;;;;;;;;;;5095014;28;20208;-86
2021/06/13 14:14:36;;;;;;;1.40;1.30;;;;;;;;;;5094361;28;20200;-87
2021/06/13 14:17:04;;;;;;;1.88;1.40;;;;;;;;;;5094490;28;20226;-87
2021/06/13 14:19:31;;;;;;;1.48;1.20;;;;;;;;;;5094779;28;20220;-86
2021/06/13 14:22:00;;;;;;;1.67;1.48;;;;;;;;;;5095924;28;20196;-86
2021/06/13 14:24:27;;;;;;;1.52;1.42;;;;;;;;;;5094927;28;20205;-86
2021/06/13 14:26:57;;;;;;;1.27;1.17;;;;;;;;;;5094635;28;20208;-86
2021/06/13 14:29:25;;;;;;;1.15;1.10;;;;;;;;;;5094649;28;20593;-87
2021/06/13 14:31:53;;;;;;;1.15;1.15;;;;;;;;;;5094153;28;20270;-86
2021/06/13 14:34:20;;;;;;;1.17;1.10;;;;;;;;;;5094324;28;20204;-87
2021/06/13 14:36:48;;;;;;;1.38;1.27;;;;;;;;;;5094580;28;20205;-87
2021/06/13 14:39:17;;;;;;;1.77;1.55;;;;;;;;;;5094916;28;20713;-86
2021/06/13 14:41:44;;;;;;;2.63;1.20;;;;;;;;;;5094738;28;20191;-87
2021/06/13 14:44:12;;;;;;;1.50;1.40;;;;;;;;;;5094615;28;20196;-86
2021/06/13 14:46:39;;;;;;;1.52;1.42;;;;;;;;;;5094271;28;20666;-87
2021/06/13 14:49:07;;;;;;;2.08;1.70;;;;;;;;;;5094833;28;20724;-86
2021/06/13 14:51:34;;;;;;;1.42;1.30;;;;;;;;;;5095237;28;20232;-86
2021/06/13 14:54:01;;;;;;;1.48;1.30;;;;;;;;;;5094704;28;20232;-86
2021/06/13 14:56:30;;;;;;;1.58;1.40;;;;;;;;;;5094820;28;20197;-86
2021/06/13 14:58:57;;;;;;;1.48;1.30;;;;;;;;;;5095007;28;20217;-86
2021/06/13 15:01:25;;;;;;;3.15;1.70;;;;;;;;;;5094624;28;20205;-86
2021/06/13 15:03:53;;;;;;;1.55;1.00;;;;;;;;;;5093976;28;20200;-86
2021/06/13 15:06:20;;;;;;;1.52;1.40;;;;;;;;;;5093296;28;20624;-87